Danburg, Georgia
Current Conditions -  °F | °C
As of 3:55 PM on Tuesday 21 Oct 2014 (Local Time) from KIIY Reporting Station
Clear Clear  
Wind Chill: 79°   Ceiling: Unl
Heat Index: 79°   Visibility: 10mi
Dew Point: 55°   Wind: 13mph
Humidity: 44%   Direction: 280°W
Pressure: 29.9"   Gusts: 20mph
Location:  33.8952°N, 82.6905°W
Report Text: KIIY 211955Z AUTO 28011G17KT 255V325 10SM CLR 26/13 A2990 RMK AO2
Loading
Personal Weather Stations






























Interactive Weather Map
Tropical Storm Tracking
New forecast layout! Learn more

10-Day Weather Forecast

Advertisements
Track Severe Weather on mobile